sensor_id;sensor_type;location;lat;lon;timestamp;P1;durP1;ratioP1;P2;durP2;ratioP2
73776;SDS011;62088;50.240;2.696;2023-06-05T00:01:16;10.40;;;4.03;;
73776;SDS011;62088;50.240;2.696;2023-06-05T00:03:43;10.27;;;4.07;;
73776;SDS011;62088;50.240;2.696;2023-06-05T00:06:11;10.65;;;4.43;;
73776;SDS011;62088;50.240;2.696;2023-06-05T00:08:38;9.10;;;4.65;;
73776;SDS011;62088;50.240;2.696;2023-06-05T00:11:06;13.60;;;5.28;;
73776;SDS011;62088;50.240;2.696;2023-06-05T00:13:33;9.13;;;3.40;;
73776;SDS011;62088;50.240;2.696;2023-06-05T00:16:00;12.52;;;4.93;;
73776;SDS011;62088;50.240;2.696;2023-06-05T00:18:30;10.00;;;3.85;;
73776;SDS011;62088;50.240;2.696;2023-06-05T00:20:57;11.05;;;4.60;;
73776;SDS011;62088;50.240;2.696;2023-06-05T00:23:24;10.15;;;4.40;;
73776;SDS011;62088;50.240;2.696;2023-06-05T00:25:51;15.00;;;5.45;;
73776;SDS011;62088;50.240;2.696;2023-06-05T00:28:18;10.25;;;5.22;;
73776;SDS011;62088;50.240;2.696;2023-06-05T00:30:46;12.98;;;5.57;;
73776;SDS011;62088;50.240;2.696;2023-06-05T00:33:13;11.43;;;5.20;;
73776;SDS011;62088;50.240;2.696;2023-06-05T00:35:40;13.45;;;5.55;;
73776;SDS011;62088;50.240;2.696;2023-06-05T00:38:07;11.68;;;5.13;;
73776;SDS011;62088;50.240;2.696;2023-06-05T00:40:34;9.10;;;5.03;;
73776;SDS011;62088;50.240;2.696;2023-06-05T00:43:01;10.95;;;5.43;;
73776;SDS011;62088;50.240;2.696;2023-06-05T00:45:28;10.85;;;5.88;;
73776;SDS011;62088;50.240;2.696;2023-06-05T00:47:55;9.68;;;5.40;;
73776;SDS011;62088;50.240;2.696;2023-06-05T00:50:22;14.25;;;6.25;;
73776;SDS011;62088;50.240;2.696;2023-06-05T00:52:49;12.10;;;5.07;;
73776;SDS011;62088;50.240;2.696;2023-06-05T00:55:19;10.65;;;4.82;;
73776;SDS011;62088;50.240;2.696;2023-06-05T00:57:46;10.90;;;5.43;;
73776;SDS011;62088;50.240;2.696;2023-06-05T01:00:14;13.55;;;6.13;;
73776;SDS011;62088;50.240;2.696;2023-06-05T01:02:41;12.40;;;5.05;;
73776;SDS011;62088;50.240;2.696;2023-06-05T01:05:09;12.45;;;5.80;;
73776;SDS011;62088;50.240;2.696;2023-06-05T01:07:36;15.13;;;6.50;;
73776;SDS011;62088;50.240;2.696;2023-06-05T01:10:07;11.25;;;5.43;;
73776;SDS011;62088;50.240;2.696;2023-06-05T01:15:24;13.25;;;5.82;;
73776;SDS011;62088;50.240;2.696;2023-06-05T01:17:56;11.40;;;5.93;;
73776;SDS011;62088;50.240;2.696;2023-06-05T01:20:35;13.07;;;5.28;;
73776;SDS011;62088;50.240;2.696;2023-06-05T01:23:10;11.02;;;5.45;;
73776;SDS011;62088;50.240;2.696;2023-06-05T01:25:39;11.38;;;4.72;;
73776;SDS011;62088;50.240;2.696;2023-06-05T01:28:16;12.57;;;4.78;;
73776;SDS011;62088;50.240;2.696;2023-06-05T01:30:50;10.43;;;5.85;;
73776;SDS011;62088;50.240;2.696;2023-06-05T01:33:33;10.00;;;5.45;;
73776;SDS011;62088;50.240;2.696;2023-06-05T01:36:11;14.45;;;6.60;;
73776;SDS011;62088;50.240;2.696;2023-06-05T01:38:40;12.85;;;6.20;;
73776;SDS011;62088;50.240;2.696;2023-06-05T01:41:09;10.38;;;5.60;;
73776;SDS011;62088;50.240;2.696;2023-06-05T01:43:37;13.05;;;6.13;;
73776;SDS011;62088;50.240;2.696;2023-06-05T01:46:05;14.68;;;7.20;;
73776;SDS011;62088;50.240;2.696;2023-06-05T01:48:35;18.83;;;6.95;;
73776;SDS011;62088;50.240;2.696;2023-06-05T01:51:07;13.07;;;6.55;;
73776;SDS011;62088;50.240;2.696;2023-06-05T01:53:35;13.60;;;6.80;;
73776;SDS011;62088;50.240;2.696;2023-06-05T01:56:02;14.73;;;7.13;;
73776;SDS011;62088;50.240;2.696;2023-06-05T01:58:30;12.43;;;6.75;;
73776;SDS011;62088;50.240;2.696;2023-06-05T02:00:58;14.75;;;7.22;;
73776;SDS011;62088;50.240;2.696;2023-06-05T02:03:25;15.07;;;7.20;;
73776;SDS011;62088;50.240;2.696;2023-06-05T02:05:52;12.82;;;6.35;;
73776;SDS011;62088;50.240;2.696;2023-06-05T02:08:19;13.70;;;7.68;;
73776;SDS011;62088;50.240;2.696;2023-06-05T02:10:49;10.38;;;7.00;;
73776;SDS011;62088;50.240;2.696;2023-06-05T02:13:16;11.70;;;7.25;;
73776;SDS011;62088;50.240;2.696;2023-06-05T02:15:45;13.18;;;6.95;;
73776;SDS011;62088;50.240;2.696;2023-06-05T02:18:15;12.90;;;6.72;;
73776;SDS011;62088;50.240;2.696;2023-06-05T02:20:43;11.10;;;7.38;;
73776;SDS011;62088;50.240;2.696;2023-06-05T02:23:10;15.75;;;8.13;;
73776;SDS011;62088;50.240;2.696;2023-06-05T02:25:37;11.93;;;7.90;;
73776;SDS011;62088;50.240;2.696;2023-06-05T02:28:04;11.50;;;6.90;;
73776;SDS011;62088;50.240;2.696;2023-06-05T02:30:31;14.05;;;7.70;;
73776;SDS011;62088;50.240;2.696;2023-06-05T02:32:59;12.95;;;8.07;;
73776;SDS011;62088;50.240;2.696;2023-06-05T02:35:28;13.93;;;7.68;;
73776;SDS011;62088;50.240;2.696;2023-06-05T02:37:56;11.68;;;7.47;;
73776;SDS011;62088;50.240;2.696;2023-06-05T02:40:24;12.90;;;7.63;;
73776;SDS011;62088;50.240;2.696;2023-06-05T02:42:51;15.23;;;7.57;;
73776;SDS011;62088;50.240;2.696;2023-06-05T02:45:18;15.13;;;7.50;;
73776;SDS011;62088;50.240;2.696;2023-06-05T02:47:47;12.25;;;7.25;;
73776;SDS011;62088;50.240;2.696;2023-06-05T02:50:15;13.68;;;7.93;;
73776;SDS011;62088;50.240;2.696;2023-06-05T02:52:47;14.57;;;8.70;;
73776;SDS011;62088;50.240;2.696;2023-06-05T02:55:24;14.55;;;7.95;;
73776;SDS011;62088;50.240;2.696;2023-06-05T02:57:53;13.73;;;8.45;;
73776;SDS011;62088;50.240;2.696;2023-06-05T03:00:33;11.50;;;7.45;;
73776;SDS011;62088;50.240;2.696;2023-06-05T03:03:00;11.13;;;7.20;;
73776;SDS011;62088;50.240;2.696;2023-06-05T03:05:30;13.73;;;8.00;;
73776;SDS011;62088;50.240;2.696;2023-06-05T03:08:01;11.40;;;7.93;;
73776;SDS011;62088;50.240;2.696;2023-06-05T03:10:31;15.45;;;8.80;;
73776;SDS011;62088;50.240;2.696;2023-06-05T03:12:59;11.20;;;8.15;;
73776;SDS011;62088;50.240;2.696;2023-06-05T03:15:29;13.93;;;8.65;;
73776;SDS011;62088;50.240;2.696;2023-06-05T03:17:56;11.10;;;7.70;;
73776;SDS011;62088;50.240;2.696;2023-06-05T03:20:25;12.55;;;8.80;;
73776;SDS011;62088;50.240;2.696;2023-06-05T03:22:52;13.70;;;7.60;;
73776;SDS011;62088;50.240;2.696;2023-06-05T03:25:20;12.82;;;7.72;;
73776;SDS011;62088;50.240;2.696;2023-06-05T03:27:51;14.95;;;8.73;;
73776;SDS011;62088;50.240;2.696;2023-06-05T03:30:20;16.13;;;8.95;;
73776;SDS011;62088;50.240;2.696;2023-06-05T03:32:51;13.27;;;7.90;;
73776;SDS011;62088;50.240;2.696;2023-06-05T03:35:18;14.88;;;8.45;;
73776;SDS011;62088;50.240;2.696;2023-06-05T03:37:46;15.23;;;8.05;;
73776;SDS011;62088;50.240;2.696;2023-06-05T03:40:13;12.35;;;8.52;;
73776;SDS011;62088;50.240;2.696;2023-06-05T03:42:41;11.27;;;7.80;;
73776;SDS011;62088;50.240;2.696;2023-06-05T03:45:08;12.63;;;8.05;;
73776;SDS011;62088;50.240;2.696;2023-06-05T03:47:37;13.02;;;8.13;;
73776;SDS011;62088;50.240;2.696;2023-06-05T03:50:07;14.02;;;8.05;;
73776;SDS011;62088;50.240;2.696;2023-06-05T03:52:39;14.88;;;8.52;;
73776;SDS011;62088;50.240;2.696;2023-06-05T03:55:07;14.48;;;8.40;;
73776;SDS011;62088;50.240;2.696;2023-06-05T03:57:36;14.38;;;8.65;;
73776;SDS011;62088;50.240;2.696;2023-06-05T04:00:10;13.82;;;8.65;;
73776;SDS011;62088;50.240;2.696;2023-06-05T04:05:23;13.70;;;9.43;;
73776;SDS011;62088;50.240;2.696;2023-06-05T04:07:50;14.40;;;8.70;;
73776;SDS011;62088;50.240;2.696;2023-06-05T04:10:17;15.25;;;8.90;;
73776;SDS011;62088;50.240;2.696;2023-06-05T04:12:44;13.98;;;9.40;;
73776;SDS011;62088;50.240;2.696;2023-06-05T04:15:12;13.70;;;8.95;;
73776;SDS011;62088;50.240;2.696;2023-06-05T04:17:40;14.48;;;9.32;;
73776;SDS011;62088;50.240;2.696;2023-06-05T04:20:09;13.25;;;9.15;;
73776;SDS011;62088;50.240;2.696;2023-06-05T04:22:42;13.98;;;10.05;;
73776;SDS011;62088;50.240;2.696;2023-06-05T04:25:10;14.07;;;9.75;;
73776;SDS011;62088;50.240;2.696;2023-06-05T04:27:39;13.25;;;8.98;;
73776;SDS011;62088;50.240;2.696;2023-06-05T04:30:11;17.27;;;10.80;;
73776;SDS011;62088;50.240;2.696;2023-06-05T04:32:41;16.42;;;10.57;;
73776;SDS011;62088;50.240;2.696;2023-06-05T04:35:10;13.73;;;9.15;;
73776;SDS011;62088;50.240;2.696;2023-06-05T04:37:38;16.00;;;10.25;;
73776;SDS011;62088;50.240;2.696;2023-06-05T04:40:07;15.73;;;10.13;;
73776;SDS011;62088;50.240;2.696;2023-06-05T04:42:37;16.80;;;11.15;;
73776;SDS011;62088;50.240;2.696;2023-06-05T04:45:06;14.25;;;10.52;;
73776;SDS011;62088;50.240;2.696;2023-06-05T04:47:37;13.32;;;9.65;;
73776;SDS011;62088;50.240;2.696;2023-06-05T04:50:04;13.63;;;10.45;;
73776;SDS011;62088;50.240;2.696;2023-06-05T04:52:35;18.42;;;10.50;;
73776;SDS011;62088;50.240;2.696;2023-06-05T04:55:02;12.85;;;9.50;;
73776;SDS011;62088;50.240;2.696;2023-06-05T04:57:31;13.43;;;10.02;;
73776;SDS011;62088;50.240;2.696;2023-06-05T05:00:01;15.02;;;10.85;;
73776;SDS011;62088;50.240;2.696;2023-06-05T05:02:31;13.43;;;10.70;;
73776;SDS011;62088;50.240;2.696;2023-06-05T05:04:58;16.45;;;11.60;;
73776;SDS011;62088;50.240;2.696;2023-06-05T05:07:25;16.00;;;11.00;;
73776;SDS011;62088;50.240;2.696;2023-06-05T05:09:55;15.27;;;10.30;;
73776;SDS011;62088;50.240;2.696;2023-06-05T05:12:22;21.27;;;12.68;;
73776;SDS011;62088;50.240;2.696;2023-06-05T05:14:50;16.35;;;11.13;;
73776;SDS011;62088;50.240;2.696;2023-06-05T05:17:18;12.68;;;11.07;;
73776;SDS011;62088;50.240;2.696;2023-06-05T05:19:46;15.35;;;9.93;;
73776;SDS011;62088;50.240;2.696;2023-06-05T05:22:13;18.08;;;12.48;;
73776;SDS011;62088;50.240;2.696;2023-06-05T05:24:41;14.57;;;10.82;;
73776;SDS011;62088;50.240;2.696;2023-06-05T05:27:08;14.23;;;10.73;;
73776;SDS011;62088;50.240;2.696;2023-06-05T05:29:36;17.00;;;11.75;;
73776;SDS011;62088;50.240;2.696;2023-06-05T05:32:03;18.35;;;12.10;;
73776;SDS011;62088;50.240;2.696;2023-06-05T05:34:32;15.75;;;11.45;;
73776;SDS011;62088;50.240;2.696;2023-06-05T05:37:00;15.35;;;12.45;;
73776;SDS011;62088;50.240;2.696;2023-06-05T05:39:28;16.00;;;12.05;;
73776;SDS011;62088;50.240;2.696;2023-06-05T05:41:55;14.45;;;11.95;;
73776;SDS011;62088;50.240;2.696;2023-06-05T05:44:22;13.70;;;11.07;;
73776;SDS011;62088;50.240;2.696;2023-06-05T05:46:49;20.00;;;12.85;;
73776;SDS011;62088;50.240;2.696;2023-06-05T05:49:17;15.05;;;11.20;;
73776;SDS011;62088;50.240;2.696;2023-06-05T05:51:44;17.67;;;12.63;;
73776;SDS011;62088;50.240;2.696;2023-06-05T05:54:11;18.70;;;12.70;;
73776;SDS011;62088;50.240;2.696;2023-06-05T05:56:38;19.40;;;13.18;;
73776;SDS011;62088;50.240;2.696;2023-06-05T05:59:05;17.13;;;12.18;;
73776;SDS011;62088;50.240;2.696;2023-06-05T06:01:32;18.10;;;13.20;;
73776;SDS011;62088;50.240;2.696;2023-06-05T06:03:59;18.92;;;13.93;;
73776;SDS011;62088;50.240;2.696;2023-06-05T06:06:26;17.98;;;13.60;;
73776;SDS011;62088;50.240;2.696;2023-06-05T06:08:54;15.88;;;12.30;;
73776;SDS011;62088;50.240;2.696;2023-06-05T06:11:21;15.50;;;13.52;;
73776;SDS011;62088;50.240;2.696;2023-06-05T06:13:48;21.67;;;14.68;;
73776;SDS011;62088;50.240;2.696;2023-06-05T06:16:15;17.45;;;14.43;;
73776;SDS011;62088;50.240;2.696;2023-06-05T06:18:42;20.17;;;15.00;;
73776;SDS011;62088;50.240;2.696;2023-06-05T06:21:10;20.05;;;16.38;;
73776;SDS011;62088;50.240;2.696;2023-06-05T06:23:37;18.92;;;14.23;;
73776;SDS011;62088;50.240;2.696;2023-06-05T06:26:04;17.88;;;14.30;;
73776;SDS011;62088;50.240;2.696;2023-06-05T06:28:33;19.30;;;15.20;;
73776;SDS011;62088;50.240;2.696;2023-06-05T06:31:00;18.67;;;14.52;;
73776;SDS011;62088;50.240;2.696;2023-06-05T06:33:27;19.40;;;14.85;;
73776;SDS011;62088;50.240;2.696;2023-06-05T06:35:55;21.38;;;14.23;;
73776;SDS011;62088;50.240;2.696;2023-06-05T06:38:24;20.95;;;14.35;;
73776;SDS011;62088;50.240;2.696;2023-06-05T06:40:57;21.02;;;15.57;;
73776;SDS011;62088;50.240;2.696;2023-06-05T06:43:25;18.88;;;14.48;;
73776;SDS011;62088;50.240;2.696;2023-06-05T06:46:03;18.88;;;14.88;;
73776;SDS011;62088;50.240;2.696;2023-06-05T06:48:31;18.90;;;15.23;;
73776;SDS011;62088;50.240;2.696;2023-06-05T06:50:59;20.13;;;15.55;;
73776;SDS011;62088;50.240;2.696;2023-06-05T06:53:26;19.75;;;15.13;;
73776;SDS011;62088;50.240;2.696;2023-06-05T06:55:53;19.05;;;14.82;;
73776;SDS011;62088;50.240;2.696;2023-06-05T06:58:20;19.52;;;13.95;;
73776;SDS011;62088;50.240;2.696;2023-06-05T07:00:47;18.05;;;14.15;;
73776;SDS011;62088;50.240;2.696;2023-06-05T07:03:15;20.05;;;14.88;;
73776;SDS011;62088;50.240;2.696;2023-06-05T07:05:43;18.45;;;14.18;;
73776;SDS011;62088;50.240;2.696;2023-06-05T07:08:10;17.83;;;15.10;;
73776;SDS011;62088;50.240;2.696;2023-06-05T07:10:37;17.92;;;13.60;;
73776;SDS011;62088;50.240;2.696;2023-06-05T07:13:05;18.27;;;14.55;;
73776;SDS011;62088;50.240;2.696;2023-06-05T07:15:32;18.77;;;14.27;;
73776;SDS011;62088;50.240;2.696;2023-06-05T07:17:59;18.58;;;13.93;;
73776;SDS011;62088;50.240;2.696;2023-06-05T07:20:26;17.98;;;14.30;;
73776;SDS011;62088;50.240;2.696;2023-06-05T07:22:53;17.48;;;13.77;;
73776;SDS011;62088;50.240;2.696;2023-06-05T07:25:21;16.48;;;13.60;;
73776;SDS011;62088;50.240;2.696;2023-06-05T07:27:50;16.63;;;13.65;;
73776;SDS011;62088;50.240;2.696;2023-06-05T07:30:18;16.83;;;12.95;;
73776;SDS011;62088;50.240;2.696;2023-06-05T07:32:45;22.60;;;13.63;;
73776;SDS011;62088;50.240;2.696;2023-06-05T07:35:12;15.73;;;13.10;;
73776;SDS011;62088;50.240;2.696;2023-06-05T07:37:41;20.00;;;13.20;;
73776;SDS011;62088;50.240;2.696;2023-06-05T07:40:08;19.80;;;13.05;;
73776;SDS011;62088;50.240;2.696;2023-06-05T07:42:35;16.80;;;12.88;;
73776;SDS011;62088;50.240;2.696;2023-06-05T07:45:02;14.50;;;11.80;;
73776;SDS011;62088;50.240;2.696;2023-06-05T07:47:30;16.27;;;13.25;;
73776;SDS011;62088;50.240;2.696;2023-06-05T07:50:00;16.13;;;12.30;;
73776;SDS011;62088;50.240;2.696;2023-06-05T07:52:30;16.23;;;12.38;;
73776;SDS011;62088;50.240;2.696;2023-06-05T07:54:57;14.80;;;11.70;;
73776;SDS011;62088;50.240;2.696;2023-06-05T07:57:25;14.98;;;11.10;;
73776;SDS011;62088;50.240;2.696;2023-06-05T07:59:52;15.23;;;12.07;;
73776;SDS011;62088;50.240;2.696;2023-06-05T08:02:21;16.65;;;12.45;;
73776;SDS011;62088;50.240;2.696;2023-06-05T08:04:50;13.68;;;11.57;;
73776;SDS011;62088;50.240;2.696;2023-06-05T08:07:17;12.98;;;10.63;;
73776;SDS011;62088;50.240;2.696;2023-06-05T08:09:44;18.45;;;10.77;;
73776;SDS011;62088;50.240;2.696;2023-06-05T08:12:11;14.55;;;10.52;;
73776;SDS011;62088;50.240;2.696;2023-06-05T08:14:38;15.88;;;10.93;;
73776;SDS011;62088;50.240;2.696;2023-06-05T08:17:06;15.35;;;10.82;;
73776;SDS011;62088;50.240;2.696;2023-06-05T08:19:33;14.27;;;11.02;;
73776;SDS011;62088;50.240;2.696;2023-06-05T08:22:00;13.25;;;9.90;;
73776;SDS011;62088;50.240;2.696;2023-06-05T08:24:27;13.05;;;9.70;;
73776;SDS011;62088;50.240;2.696;2023-06-05T08:26:55;10.82;;;8.90;;
73776;SDS011;62088;50.240;2.696;2023-06-05T08:29:22;16.52;;;10.20;;
73776;SDS011;62088;50.240;2.696;2023-06-05T08:31:50;13.07;;;9.73;;
73776;SDS011;62088;50.240;2.696;2023-06-05T08:34:17;14.07;;;10.48;;
73776;SDS011;62088;50.240;2.696;2023-06-05T08:36:44;12.85;;;9.82;;
73776;SDS011;62088;50.240;2.696;2023-06-05T08:39:11;17.85;;;11.23;;
73776;SDS011;62088;50.240;2.696;2023-06-05T08:41:39;13.73;;;9.88;;
73776;SDS011;62088;50.240;2.696;2023-06-05T08:44:10;11.68;;;8.10;;
73776;SDS011;62088;50.240;2.696;2023-06-05T08:46:38;12.48;;;9.32;;
73776;SDS011;62088;50.240;2.696;2023-06-05T08:49:10;14.32;;;8.77;;
73776;SDS011;62088;50.240;2.696;2023-06-05T08:51:38;12.40;;;8.98;;
73776;SDS011;62088;50.240;2.696;2023-06-05T08:54:08;12.93;;;8.00;;
73776;SDS011;62088;50.240;2.696;2023-06-05T08:56:40;13.03;;;8.77;;
73776;SDS011;62088;50.240;2.696;2023-06-05T08:59:10;10.30;;;7.85;;
73776;SDS011;62088;50.240;2.696;2023-06-05T09:01:42;10.63;;;7.80;;
73776;SDS011;62088;50.240;2.696;2023-06-05T09:04:10;11.35;;;7.55;;
73776;SDS011;62088;50.240;2.696;2023-06-05T09:06:38;13.23;;;8.63;;
73776;SDS011;62088;50.240;2.696;2023-06-05T09:09:06;13.18;;;8.75;;
73776;SDS011;62088;50.240;2.696;2023-06-05T09:11:36;11.38;;;8.02;;
73776;SDS011;62088;50.240;2.696;2023-06-05T09:14:05;13.85;;;7.85;;
73776;SDS011;62088;50.240;2.696;2023-06-05T09:16:42;11.70;;;7.28;;
73776;SDS011;62088;50.240;2.696;2023-06-05T09:19:10;10.77;;;7.55;;
73776;SDS011;62088;50.240;2.696;2023-06-05T09:21:38;11.25;;;8.15;;
73776;SDS011;62088;50.240;2.696;2023-06-05T09:24:13;12.65;;;8.38;;
73776;SDS011;62088;50.240;2.696;2023-06-05T09:29:36;10.48;;;7.65;;
73776;SDS011;62088;50.240;2.696;2023-06-05T09:32:17;11.07;;;7.75;;
73776;SDS011;62088;50.240;2.696;2023-06-05T09:34:47;11.68;;;7.75;;
73776;SDS011;62088;50.240;2.696;2023-06-05T09:37:35;9.48;;;6.70;;
73776;SDS011;62088;50.240;2.696;2023-06-05T09:40:03;14.30;;;8.07;;
73776;SDS011;62088;50.240;2.696;2023-06-05T09:42:32;10.27;;;7.28;;
73776;SDS011;62088;50.240;2.696;2023-06-05T09:45:00;9.43;;;7.50;;
73776;SDS011;62088;50.240;2.696;2023-06-05T09:47:28;11.40;;;7.28;;
73776;SDS011;62088;50.240;2.696;2023-06-05T09:50:20;13.52;;;7.55;;
73776;SDS011;62088;50.240;2.696;2023-06-05T09:52:51;10.93;;;6.95;;
73776;SDS011;62088;50.240;2.696;2023-06-05T09:55:21;10.88;;;7.43;;
73776;SDS011;62088;50.240;2.696;2023-06-05T09:57:50;9.85;;;6.72;;
73776;SDS011;62088;50.240;2.696;2023-06-05T10:00:18;9.60;;;6.68;;
73776;SDS011;62088;50.240;2.696;2023-06-05T10:02:47;8.75;;;6.68;;
73776;SDS011;62088;50.240;2.696;2023-06-05T10:05:16;9.57;;;6.10;;
73776;SDS011;62088;50.240;2.696;2023-06-05T10:07:46;8.68;;;5.85;;
73776;SDS011;62088;50.240;2.696;2023-06-05T10:10:20;6.95;;;5.63;;
73776;SDS011;62088;50.240;2.696;2023-06-05T10:12:48;9.50;;;5.72;;
73776;SDS011;62088;50.240;2.696;2023-06-05T10:15:16;12.55;;;6.53;;
73776;SDS011;62088;50.240;2.696;2023-06-05T10:17:43;9.35;;;6.28;;
73776;SDS011;62088;50.240;2.696;2023-06-05T10:20:14;11.68;;;7.05;;
73776;SDS011;62088;50.240;2.696;2023-06-05T10:22:43;7.25;;;5.28;;
73776;SDS011;62088;50.240;2.696;2023-06-05T10:25:12;8.48;;;5.93;;
73776;SDS011;62088;50.240;2.696;2023-06-05T10:30:25;8.80;;;5.57;;
73776;SDS011;62088;50.240;2.696;2023-06-05T10:33:30;9.77;;;5.07;;
73776;SDS011;62088;50.240;2.696;2023-06-05T10:38:32;9.27;;;6.05;;
73776;SDS011;62088;50.240;2.696;2023-06-05T10:41:01;8.63;;;5.55;;
73776;SDS011;62088;50.240;2.696;2023-06-05T10:43:35;7.90;;;5.43;;
73776;SDS011;62088;50.240;2.696;2023-06-05T10:49:07;10.50;;;5.22;;
73776;SDS011;62088;50.240;2.696;2023-06-05T10:51:50;9.23;;;5.70;;
73776;SDS011;62088;50.240;2.696;2023-06-05T10:59:20;9.73;;;5.45;;
73776;SDS011;62088;50.240;2.696;2023-06-05T11:10:10;7.95;;;5.63;;
73776;SDS011;62088;50.240;2.696;2023-06-05T11:17:45;9.15;;;5.50;;
73776;SDS011;62088;50.240;2.696;2023-06-05T11:25:26;8.75;;;5.60;;
73776;SDS011;62088;50.240;2.696;2023-06-05T11:28:01;8.30;;;5.20;;
73776;SDS011;62088;50.240;2.696;2023-06-05T11:30:42;8.32;;;5.10;;
73776;SDS011;62088;50.240;2.696;2023-06-05T11:33:16;7.70;;;4.82;;
73776;SDS011;62088;50.240;2.696;2023-06-05T11:35:46;8.05;;;5.40;;
73776;SDS011;62088;50.240;2.696;2023-06-05T11:38:15;8.25;;;4.68;;
73776;SDS011;62088;50.240;2.696;2023-06-05T11:40:49;8.85;;;5.15;;
73776;SDS011;62088;50.240;2.696;2023-06-05T11:43:16;7.55;;;4.75;;
73776;SDS011;62088;50.240;2.696;2023-06-05T11:45:53;11.55;;;5.10;;
73776;SDS011;62088;50.240;2.696;2023-06-05T11:48:22;7.47;;;4.47;;
73776;SDS011;62088;50.240;2.696;2023-06-05T11:50:52;7.65;;;4.32;;
73776;SDS011;62088;50.240;2.696;2023-06-05T11:53:25;11.60;;;4.80;;
73776;SDS011;62088;50.240;2.696;2023-06-05T11:55:53;8.55;;;3.80;;
73776;SDS011;62088;50.240;2.696;2023-06-05T11:58:35;9.98;;;3.85;;
73776;SDS011;62088;50.240;2.696;2023-06-05T12:01:08;7.00;;;4.07;;
73776;SDS011;62088;50.240;2.696;2023-06-05T12:03:49;7.13;;;3.83;;
73776;SDS011;62088;50.240;2.696;2023-06-05T12:06:32;8.23;;;4.30;;
73776;SDS011;62088;50.240;2.696;2023-06-05T12:09:08;8.00;;;4.47;;
73776;SDS011;62088;50.240;2.696;2023-06-05T12:11:41;9.50;;;4.43;;
73776;SDS011;62088;50.240;2.696;2023-06-05T12:14:11;8.85;;;5.07;;
73776;SDS011;62088;50.240;2.696;2023-06-05T12:16:40;6.85;;;3.92;;
73776;SDS011;62088;50.240;2.696;2023-06-05T12:19:11;6.93;;;3.90;;
73776;SDS011;62088;50.240;2.696;2023-06-05T12:21:44;6.30;;;3.50;;
73776;SDS011;62088;50.240;2.696;2023-06-05T12:24:13;8.57;;;3.80;;
73776;SDS011;62088;50.240;2.696;2023-06-05T12:26:50;6.90;;;4.15;;
73776;SDS011;62088;50.240;2.696;2023-06-05T12:29:24;6.00;;;3.85;;
73776;SDS011;62088;50.240;2.696;2023-06-05T12:31:55;6.53;;;3.88;;
73776;SDS011;62088;50.240;2.696;2023-06-05T12:34:43;9.88;;;4.47;;
73776;SDS011;62088;50.240;2.696;2023-06-05T12:37:30;7.43;;;4.10;;
73776;SDS011;62088;50.240;2.696;2023-06-05T12:40:01;6.97;;;3.80;;
73776;SDS011;62088;50.240;2.696;2023-06-05T12:42:35;8.27;;;3.55;;
73776;SDS011;62088;50.240;2.696;2023-06-05T12:45:06;7.28;;;3.53;;
73776;SDS011;62088;50.240;2.696;2023-06-05T12:47:34;8.02;;;3.83;;
73776;SDS011;62088;50.240;2.696;2023-06-05T12:50:02;7.68;;;4.22;;
73776;SDS011;62088;50.240;2.696;2023-06-05T12:52:30;7.45;;;3.70;;
73776;SDS011;62088;50.240;2.696;2023-06-05T12:54:58;6.70;;;3.22;;
73776;SDS011;62088;50.240;2.696;2023-06-05T12:57:26;6.63;;;4.10;;
73776;SDS011;62088;50.240;2.696;2023-06-05T12:59:53;6.85;;;4.00;;
73776;SDS011;62088;50.240;2.696;2023-06-05T13:02:22;6.35;;;3.40;;
73776;SDS011;62088;50.240;2.696;2023-06-05T13:04:49;6.70;;;3.53;;
73776;SDS011;62088;50.240;2.696;2023-06-05T13:07:16;6.75;;;3.47;;
73776;SDS011;62088;50.240;2.696;2023-06-05T13:09:45;5.75;;;3.42;;
73776;SDS011;62088;50.240;2.696;2023-06-05T13:12:13;7.38;;;4.30;;
73776;SDS011;62088;50.240;2.696;2023-06-05T13:14:40;5.43;;;3.50;;
73776;SDS011;62088;50.240;2.696;2023-06-05T13:17:07;7.55;;;3.20;;
73776;SDS011;62088;50.240;2.696;2023-06-05T13:19:34;6.63;;;3.72;;
73776;SDS011;62088;50.240;2.696;2023-06-05T13:22:01;6.32;;;3.70;;
73776;SDS011;62088;50.240;2.696;2023-06-05T13:24:29;5.80;;;3.78;;
73776;SDS011;62088;50.240;2.696;2023-06-05T13:26:57;6.75;;;3.55;;
73776;SDS011;62088;50.240;2.696;2023-06-05T13:29:24;6.50;;;3.40;;
73776;SDS011;62088;50.240;2.696;2023-06-05T13:31:51;6.55;;;3.60;;
73776;SDS011;62088;50.240;2.696;2023-06-05T13:34:18;6.63;;;3.78;;
73776;SDS011;62088;50.240;2.696;2023-06-05T13:36:45;6.60;;;3.75;;
73776;SDS011;62088;50.240;2.696;2023-06-05T13:39:13;10.35;;;3.17;;
73776;SDS011;62088;50.240;2.696;2023-06-05T13:41:41;5.25;;;3.53;;
73776;SDS011;62088;50.240;2.696;2023-06-05T13:44:08;7.93;;;3.60;;
73776;SDS011;62088;50.240;2.696;2023-06-05T13:46:35;7.32;;;3.28;;
73776;SDS011;62088;50.240;2.696;2023-06-05T13:49:02;5.85;;;2.80;;
73776;SDS011;62088;50.240;2.696;2023-06-05T13:51:29;6.30;;;3.13;;
73776;SDS011;62088;50.240;2.696;2023-06-05T13:53:57;5.70;;;2.85;;
73776;SDS011;62088;50.240;2.696;2023-06-05T13:56:24;8.35;;;3.90;;
73776;SDS011;62088;50.240;2.696;2023-06-05T13:58:52;7.28;;;3.40;;
73776;SDS011;62088;50.240;2.696;2023-06-05T14:01:19;5.50;;;2.53;;
73776;SDS011;62088;50.240;2.696;2023-06-05T14:03:46;7.15;;;3.42;;
73776;SDS011;62088;50.240;2.696;2023-06-05T14:06:16;6.93;;;3.50;;
73776;SDS011;62088;50.240;2.696;2023-06-05T14:08:44;6.38;;;2.97;;
73776;SDS011;62088;50.240;2.696;2023-06-05T14:11:11;8.68;;;3.17;;
73776;SDS011;62088;50.240;2.696;2023-06-05T14:13:39;5.43;;;2.78;;
73776;SDS011;62088;50.240;2.696;2023-06-05T14:16:06;5.95;;;3.33;;
73776;SDS011;62088;50.240;2.696;2023-06-05T14:18:37;6.43;;;3.47;;
73776;SDS011;62088;50.240;2.696;2023-06-05T14:21:04;7.95;;;3.25;;
73776;SDS011;62088;50.240;2.696;2023-06-05T14:23:32;7.43;;;4.00;;
73776;SDS011;62088;50.240;2.696;2023-06-05T14:25:59;6.93;;;4.13;;
73776;SDS011;62088;50.240;2.696;2023-06-05T14:28:26;5.55;;;3.55;;
73776;SDS011;62088;50.240;2.696;2023-06-05T14:30:54;7.55;;;3.75;;
73776;SDS011;62088;50.240;2.696;2023-06-05T14:33:22;6.00;;;3.38;;
73776;SDS011;62088;50.240;2.696;2023-06-05T14:35:49;7.13;;;3.75;;
73776;SDS011;62088;50.240;2.696;2023-06-05T14:38:17;6.53;;;3.90;;
73776;SDS011;62088;50.240;2.696;2023-06-05T14:40:44;7.75;;;3.70;;
73776;SDS011;62088;50.240;2.696;2023-06-05T14:43:11;7.22;;;3.55;;
73776;SDS011;62088;50.240;2.696;2023-06-05T14:45:38;8.32;;;4.40;;
73776;SDS011;62088;50.240;2.696;2023-06-05T14:48:06;6.45;;;3.70;;
73776;SDS011;62088;50.240;2.696;2023-06-05T14:50:36;8.10;;;4.07;;
73776;SDS011;62088;50.240;2.696;2023-06-05T14:53:03;7.43;;;3.63;;
73776;SDS011;62088;50.240;2.696;2023-06-05T14:55:31;9.48;;;3.40;;
73776;SDS011;62088;50.240;2.696;2023-06-05T14:57:58;8.00;;;3.45;;
73776;SDS011;62088;50.240;2.696;2023-06-05T15:00:25;8.02;;;4.03;;
73776;SDS011;62088;50.240;2.696;2023-06-05T15:02:52;6.15;;;3.70;;
73776;SDS011;62088;50.240;2.696;2023-06-05T15:05:19;7.43;;;4.15;;
73776;SDS011;62088;50.240;2.696;2023-06-05T15:07:46;10.10;;;4.95;;
73776;SDS011;62088;50.240;2.696;2023-06-05T15:10:14;9.88;;;3.17;;
73776;SDS011;62088;50.240;2.696;2023-06-05T15:12:42;6.57;;;3.88;;
73776;SDS011;62088;50.240;2.696;2023-06-05T15:15:09;8.55;;;4.32;;
73776;SDS011;62088;50.240;2.696;2023-06-05T15:17:47;8.90;;;4.00;;
73776;SDS011;62088;50.240;2.696;2023-06-05T15:20:15;6.25;;;2.95;;
73776;SDS011;62088;50.240;2.696;2023-06-05T15:22:42;7.05;;;4.20;;
73776;SDS011;62088;50.240;2.696;2023-06-05T15:25:09;7.85;;;3.88;;
73776;SDS011;62088;50.240;2.696;2023-06-05T15:27:37;6.80;;;3.90;;